Marib Spirit — V7CY2 — position and weather

sailwx.info

Track history (hours):
 
Tides and Currents Weather Stations Pressure Air Temp Water Temp Dewpoint Dewpoint Depression Visibility Wind Speed Wind Dir Waves Ship Positions

Marib Spirit

Last reported at 2018-Feb-17 05:37 UTC. Time now 2018-Feb-17 23:52 UTC.
Position N 23°41' E 122°57'.

Length 285 m; draft 10.4 m.

Type: Ship (hazmat cat A). MMSI: 538001576.

Date/timePositionNaut miles runAvg speedWind from/ knotsBaromVisibWave heightAir tempDewpointWater temp
2018-Feb-17 05:37N 23°41' E 122°57'217.4
2018-Feb-17 05:30N 23°43' E 122°58'917.9
2018-Feb-17 05:01N 23°51' E 123°02'918.0
2018-Feb-17 04:30N 23°59' E 123°06'917.9
2018-Feb-17 04:00N 24°07' E 123°10'918.1
2018-Feb-17 03:30N 24°16' E 123°13'917.7
2018-Feb-17 03:00N 24°24' E 123°17'917.6
2018-Feb-17 02:30N 24°32' E 123°21'917.5
2018-Feb-17 02:00N 24°40' E 123°25'918.2
2018-Feb-17 01:31N 24°48' E 123°29'918.2
2018-Feb-17 01:00N 24°57' E 123°33'  
2018-Feb-12 01:13N 25°00' E 123°36'416.9
2018-Feb-12 01:01N 24°57' E 123°35'917.2
2018-Feb-12 00:31N 24°49' E 123°30'917.7
2018-Feb-12 00:00N 24°41' E 123°26'918.0
2018-Feb-11 23:31N 24°33' E 123°22'917.5
2018-Feb-11 23:01N 24°25' E 123°18'917.1
2018-Feb-11 22:31N 24°18' E 123°14'917.3
2018-Feb-11 22:01N 24°10' E 123°10'917.3
2018-Feb-11 21:31N 24°01' E 123°07'917.0
2018-Feb-11 21:00N 23°54' E 123°03'917.1
2018-Feb-11 20:31N 23°46' E 122°59'  
2018-Feb-07 09:28N 01°11' E 103°51'511.5
2018-Feb-07 09:00N 01°08' E 103°47'510.9
2018-Feb-07 08:30N 01°04' E 103°43'510.1
2018-Feb-07 07:59N 01°03' E 103°38'613.7
2018-Feb-07 07:30N 01°06' E 103°32'714.1
2018-Feb-07 07:00N 01°10' E 103°26'713.9
2018-Feb-07 06:30N 01°14' E 103°21'  
Track history (hours):
 
Tides and Currents Weather Stations Pressure Air Temp Water Temp Dewpoint Dewpoint Depression Visibility Wind Speed Wind Dir Waves Ship Positions

Marib Spirit

Last reported at 2018-Feb-17 05:37 UTC. Time now 2018-Feb-17 23:52 UTC.
Position N 23°41' E 122°57'.

Length 285 m; draft 10.4 m.

Type: Ship (hazmat cat A). MMSI: 538001576.

Date/timePositionNaut miles runAvg speedWind from/ knotsBaromVisibWave heightAir tempDewpointWater temp
2018-Feb-17 05:37N 23°41' E 122°57'217.4
2018-Feb-17 05:30N 23°43' E 122°58'917.9
2018-Feb-17 05:01N 23°51' E 123°02'918.0
2018-Feb-17 04:30N 23°59' E 123°06'917.9
2018-Feb-17 04:00N 24°07' E 123°10'918.1
2018-Feb-17 03:30N 24°16' E 123°13'917.7
2018-Feb-17 03:00N 24°24' E 123°17'917.6
2018-Feb-17 02:30N 24°32' E 123°21'917.5
2018-Feb-17 02:00N 24°40' E 123°25'918.2
2018-Feb-17 01:31N 24°48' E 123°29'918.2
2018-Feb-17 01:00N 24°57' E 123°33'  
2018-Feb-12 01:13N 25°00' E 123°36'416.9
2018-Feb-12 01:01N 24°57' E 123°35'917.2
2018-Feb-12 00:31N 24°49' E 123°30'917.7
2018-Feb-12 00:00N 24°41' E 123°26'918.0
2018-Feb-11 23:31N 24°33' E 123°22'917.5
2018-Feb-11 23:01N 24°25' E 123°18'917.1
2018-Feb-11 22:31N 24°18' E 123°14'917.3
2018-Feb-11 22:01N 24°10' E 123°10'917.3
2018-Feb-11 21:31N 24°01' E 123°07'917.0
2018-Feb-11 21:00N 23°54' E 123°03'917.1
2018-Feb-11 20:31N 23°46' E 122°59'  
2018-Feb-07 09:28N 01°11' E 103°51'511.5
2018-Feb-07 09:00N 01°08' E 103°47'510.9
2018-Feb-07 08:30N 01°04' E 103°43'510.1
2018-Feb-07 07:59N 01°03' E 103°38'613.7
2018-Feb-07 07:30N 01°06' E 103°32'714.1
2018-Feb-07 07:00N 01°10' E 103°26'713.9
2018-Feb-07 06:30N 01°14' E 103°21'  

Dump ship's entire track history